createdAt,value
2022-10-07T00:00:39.714Z,101773.41
2022-10-07T00:01:42.081Z,101777.00
2022-10-07T00:02:44.692Z,101777.22
2022-10-07T00:03:47.081Z,101776.56
2022-10-07T00:04:49.428Z,101780.41
2022-10-07T00:06:24.081Z,101776.16
2022-10-07T00:07:26.402Z,101775.31
2022-10-07T00:08:30.118Z,101777.22
2022-10-07T00:09:32.463Z,101771.72
2022-10-07T00:10:40.966Z,101773.63
2022-10-07T00:11:43.448Z,101779.13
2022-10-07T00:12:45.790Z,101772.97
2022-10-07T00:13:52.092Z,101778.50
2022-10-07T00:14:54.631Z,101773.19
2022-10-07T00:16:03.799Z,101774.25
2022-10-07T00:17:08.617Z,101768.09
2022-10-07T00:18:11.223Z,101766.22
2022-10-07T00:19:16.455Z,101768.97
2022-10-07T00:20:18.866Z,101768.97
2022-10-07T00:21:21.190Z,101764.50
2022-10-07T00:22:23.802Z,101763.84
2022-10-07T00:23:26.119Z,101771.28
2022-10-07T00:24:28.591Z,101764.06
2022-10-07T00:25:31.002Z,101764.28
2022-10-07T00:26:35.364Z,101763.44
2022-10-07T00:27:37.680Z,101767.03
2022-10-07T00:28:40.211Z,101767.66
2022-10-07T00:29:42.610Z,101756.66
2022-10-07T00:30:44.999Z,101760.47
2022-10-07T00:31:48.304Z,101757.28
2022-10-07T00:32:50.670Z,101756.44
2022-10-07T00:33:54.761Z,101758.13
2022-10-07T00:34:57.071Z,101757.28
2022-10-07T00:35:59.481Z,101753.88
2022-10-07T00:37:01.727Z,101753.88
2022-10-07T00:38:03.951Z,101753.88
2022-10-07T00:39:10.390Z,101756.84
2022-10-07T00:40:13.462Z,101752.41
2022-10-07T00:41:22.562Z,101750.72
2022-10-07T00:42:24.853Z,101755.16
2022-10-07T00:43:32.516Z,101757.28
2022-10-07T00:44:48.835Z,101750.91
2022-10-07T00:45:57.550Z,101744.78
2022-10-07T00:47:03.515Z,101746.69
2022-10-07T00:48:05.742Z,101751.13
2022-10-07T00:49:14.085Z,101742.25
2022-10-07T00:50:21.027Z,101747.75
2022-10-07T00:51:27.100Z,101746.06
2022-10-07T00:52:33.764Z,101738.00
2022-10-07T00:53:39.636Z,101745.41
2022-10-07T00:54:43.350Z,101748.16
2022-10-07T00:55:48.141Z,101737.38
2022-10-07T00:56:52.090Z,101735.66
2022-10-07T00:57:59.218Z,101738.41
2022-10-07T00:59:02.097Z,101739.28
2022-10-07T01:00:06.736Z,101738.63
2022-10-07T01:01:09.509Z,101734.19
2022-10-07T01:02:15.398Z,101731.44
2022-10-07T01:03:17.708Z,101737.97
2022-10-07T01:04:20.388Z,101732.91
2022-10-07T01:05:22.657Z,101731.19
2022-10-07T01:06:24.915Z,101733.75
2022-10-07T01:07:31.794Z,101735.88
2022-10-07T01:08:34.488Z,101735.03
2022-10-07T01:09:36.930Z,101731.63
2022-10-07T01:11:16.283Z,101726.97
2022-10-07T01:12:39.970Z,101732.47
2022-10-07T01:14:15.866Z,101724.44
2022-10-07T01:15:30.316Z,101722.94
2022-10-07T01:16:58.886Z,101719.34
2022-10-07T01:18:17.606Z,101721.44
2022-10-07T01:19:37.097Z,101732.47
2022-10-07T01:21:10.726Z,101717.22
2022-10-07T01:22:56.549Z,101720.41
2022-10-07T01:24:26.331Z,101712.34
2022-10-07T01:25:34.491Z,101718.03
2022-10-07T01:26:47.818Z,101710.88
2022-10-07T01:28:01.203Z,101709.16
2022-10-07T01:29:11.969Z,101709.38
2022-10-07T01:30:14.285Z,101705.97
2022-10-07T01:31:21.729Z,101707.03
2022-10-07T01:32:47.953Z,101707.03
2022-10-07T01:33:54.085Z,101696.44
2022-10-07T01:35:01.295Z,101690.94
2022-10-07T01:36:12.876Z,101697.72
2022-10-07T01:37:17.944Z,101693.06
2022-10-07T01:38:26.323Z,101686.94
2022-10-07T01:39:34.525Z,101679.72
2022-10-07T01:40:44.321Z,101684.38
2022-10-07T01:41:47.311Z,101686.28
2022-10-07T01:42:52.004Z,101687.31
2022-10-07T01:43:59.100Z,101679.28
2022-10-07T01:45:10.100Z,101690.28
2022-10-07T01:46:18.539Z,101685.84
2022-10-07T01:47:20.995Z,101675.06
2022-10-07T01:48:23.850Z,101672.31
2022-10-07T01:49:26.826Z,101676.09
2022-10-07T01:50:30.937Z,101670.59
2022-10-07T01:51:38.947Z,101668.94
2022-10-07T01:53:12.836Z,101668.06
2022-10-07T01:54:50.554Z,101661.50
2022-10-07T01:55:55.751Z,101661.72
2022-10-07T01:57:10.020Z,101661.94
2022-10-07T01:58:50.817Z,101664.03
2022-10-07T02:00:01.530Z,101664.03
2022-10-07T02:01:38.776Z,101663.41
2022-10-07T02:03:21.493Z,101662.34
2022-10-07T02:04:59.267Z,101665.09
2022-10-07T02:06:32.919Z,101667.22
2022-10-07T02:07:51.432Z,101658.31
2022-10-07T02:08:56.907Z,101653.84
2022-10-07T02:10:27.480Z,101653.03
2022-10-07T02:11:37.834Z,101642.25
2022-10-07T02:12:47.015Z,101649.63
2022-10-07T02:14:01.482Z,101643.09
2022-10-07T02:15:19.704Z,101643.28
2022-10-07T02:16:31.532Z,101648.13
2022-10-07T02:17:42.642Z,101639.06
2022-10-07T02:18:50.518Z,101641.81
2022-10-07T02:19:56.634Z,101632.91
2022-10-07T02:21:04.132Z,101638.22
2022-10-07T02:22:09.316Z,101637.56
2022-10-07T02:23:14.439Z,101634.59
2022-10-07T02:24:21.413Z,101643.06
2022-10-07T02:25:27.594Z,101641.16
2022-10-07T02:26:32.534Z,101639.47
2022-10-07T02:27:38.192Z,101635.03
2022-10-07T02:28:45.275Z,101644.13
2022-10-07T02:29:51.482Z,101638.63
2022-10-07T02:31:01.495Z,101628.66
2022-10-07T02:32:13.608Z,101638.81
2022-10-07T02:33:19.317Z,101636.06
2022-10-07T02:34:24.764Z,101631.63
2022-10-07T02:35:33.001Z,101629.94
2022-10-07T02:36:41.107Z,101627.19
2022-10-07T02:37:47.951Z,101626.34
2022-10-07T02:38:50.343Z,101624.63
2022-10-07T02:39:55.737Z,101634.78
2022-10-07T02:41:35.726Z,101630.31
2022-10-07T02:42:52.925Z,101624.00
2022-10-07T02:44:17.983Z,101624.00
2022-10-07T02:45:28.488Z,101626.75
2022-10-07T02:46:38.322Z,101624.81
2022-10-07T02:47:47.858Z,101628.63
2022-10-07T02:49:08.547Z,101626.94
2022-10-07T02:50:14.979Z,101621.47
2022-10-07T02:51:21.646Z,101624.38
2022-10-07T02:52:31.414Z,101633.50
2022-10-07T02:53:35.372Z,101617.22
2022-10-07T02:55:04.503Z,101619.09
2022-10-07T02:56:07.523Z,101629.25
2022-10-07T02:57:13.475Z,101618.47
2022-10-07T02:58:17.583Z,101623.75
2022-10-07T02:59:22.027Z,101612.13
2022-10-07T03:00:24.725Z,101616.56
2022-10-07T03:01:32.073Z,101622.28
2022-10-07T03:02:49.161Z,101611.28
2022-10-07T03:03:53.969Z,101609.56
2022-10-07T03:04:58.753Z,101615.91
2022-10-07T03:06:01.361Z,101609.13
2022-10-07T03:07:10.770Z,101612.94
2022-10-07T03:08:13.211Z,101612.09
2022-10-07T03:09:17.437Z,101610.41
2022-10-07T03:10:19.794Z,101606.81
2022-10-07T03:11:22.063Z,101615.06
2022-10-07T03:12:24.419Z,101608.69
2022-10-07T03:13:26.683Z,101602.56
2022-10-07T03:14:35.853Z,101608.91
2022-10-07T03:15:42.638Z,101612.53
2022-10-07T03:16:47.805Z,101611.66
2022-10-07T03:17:50.051Z,101603.41
2022-10-07T03:18:52.734Z,101602.56
2022-10-07T03:20:00.827Z,101599.84
2022-10-07T03:21:03.874Z,101600.88
2022-10-07T03:22:06.058Z,101603.84
2022-10-07T03:23:14.028Z,101601.09
2022-10-07T03:24:18.668Z,101594.72
2022-10-07T03:25:22.855Z,101596.84
2022-10-07T03:26:25.094Z,101596.84
2022-10-07T03:27:28.925Z,101602.34
2022-10-07T03:28:35.437Z,101596.84
2022-10-07T03:29:38.140Z,101598.09
2022-10-07T03:30:41.098Z,101594.53
2022-10-07T03:31:43.478Z,101596.19
2022-10-07T03:32:46.229Z,101589.88
2022-10-07T03:33:48.708Z,101589.22
2022-10-07T03:34:51.587Z,101591.13
2022-10-07T03:35:54.016Z,101595.78
2022-10-07T03:36:56.341Z,101599.56
2022-10-07T03:37:58.568Z,101593.22
2022-10-07T03:39:00.940Z,101588.81
2022-10-07T03:40:04.571Z,101582.22
2022-10-07T03:41:06.910Z,101588.81
2022-10-07T03:42:09.632Z,101589.84
2022-10-07T03:43:12.304Z,101582.66
2022-10-07T03:44:14.817Z,101582.66
2022-10-07T03:45:19.333Z,101584.34
2022-10-07T03:46:21.590Z,101577.16
2022-10-07T03:47:25.029Z,101580.94
2022-10-07T03:48:27.243Z,101571.88
2022-10-07T03:49:29.699Z,101571.00
2022-10-07T03:50:31.953Z,101572.94
2022-10-07T03:51:38.687Z,101572.09
2022-10-07T03:52:45.723Z,101569.34
2022-10-07T03:53:48.805Z,101564.91
2022-10-07T03:54:53.318Z,101561.28
2022-10-07T03:55:56.060Z,101569.13
2022-10-07T03:56:58.429Z,101561.91
2022-10-07T03:58:01.335Z,101555.78
2022-10-07T03:59:04.872Z,101561.25
2022-10-07T04:00:07.913Z,101565.09
2022-10-07T04:01:17.550Z,101560.84
2022-10-07T04:02:23.958Z,101561.69
2022-10-07T04:03:26.367Z,101561.25
2022-10-07T04:04:28.678Z,101560.41
2022-10-07T04:05:32.829Z,101554.03
2022-10-07T04:06:35.591Z,101555.13
2022-10-07T04:07:44.070Z,101549.81
2022-10-07T04:08:46.414Z,101555.31
2022-10-07T04:09:49.293Z,101548.97
2022-10-07T04:10:54.498Z,101549.19
2022-10-07T04:11:56.666Z,101549.41
2022-10-07T04:12:59.035Z,101549.41
2022-10-07T04:14:01.555Z,101552.16
2022-10-07T04:15:05.358Z,101550.22
2022-10-07T04:16:08.760Z,101550.22
2022-10-07T04:17:11.483Z,101548.53
2022-10-07T04:18:13.748Z,101554.69
2022-10-07T04:19:16.725Z,101556.56
2022-10-07T04:20:19.040Z,101548.53
2022-10-07T04:21:22.609Z,101543.91
2022-10-07T04:22:26.036Z,101544.75
2022-10-07T04:23:28.417Z,101543.91
2022-10-07T04:24:30.745Z,101548.53
2022-10-07T04:25:38.099Z,101544.09
2022-10-07T04:26:45.408Z,101546.22
2022-10-07T04:27:53.993Z,101540.50
2022-10-07T04:29:00.225Z,101537.09
2022-10-07T04:30:04.102Z,101534.19
2022-10-07T04:31:09.023Z,101545.16
2022-10-07T04:32:15.045Z,101537.75
2022-10-07T04:33:19.299Z,101537.97
2022-10-07T04:34:21.518Z,101536.94
2022-10-07T04:35:23.972Z,101537.97
2022-10-07T04:36:28.723Z,101522.53
2022-10-07T04:37:44.196Z,101532.69
2022-10-07T04:38:53.124Z,101529.94
2022-10-07T04:40:01.240Z,101534.56
2022-10-07T04:41:08.221Z,101539.03
2022-10-07T04:42:32.273Z,101531.19
2022-10-07T04:43:35.192Z,101531.19
2022-10-07T04:44:41.538Z,101527.78
2022-10-07T04:45:43.793Z,101528.84
2022-10-07T04:46:46.011Z,101526.97
2022-10-07T04:47:50.249Z,101523.34
2022-10-07T04:48:54.801Z,101524.22
2022-10-07T04:50:00.118Z,101527.78
2022-10-07T04:51:04.458Z,101525.25
2022-10-07T04:52:06.967Z,101524.44
2022-10-07T04:53:18.366Z,101525.47
2022-10-07T04:54:21.810Z,101525.47
2022-10-07T04:55:28.468Z,101529.25
2022-10-07T04:56:31.516Z,101521.03
2022-10-07T04:57:35.016Z,101520.19
2022-10-07T04:58:37.531Z,101526.72
2022-10-07T04:59:43.055Z,101529.47
2022-10-07T05:00:55.828Z,101530.31
2022-10-07T05:02:02.259Z,101528.59
2022-10-07T05:03:05.527Z,101527.97
2022-10-07T05:04:11.814Z,101526.06
2022-10-07T05:05:20.338Z,101525.25
2022-10-07T05:06:22.928Z,101522.50
2022-10-07T05:07:26.029Z,101524.38
2022-10-07T05:08:28.578Z,101523.53
2022-10-07T05:09:32.234Z,101520.78
2022-10-07T05:10:39.874Z,101516.34
2022-10-07T05:11:42.385Z,101520.34
2022-10-07T05:12:55.715Z,101518.47
2022-10-07T05:13:58.735Z,101520.13
2022-10-07T05:15:03.178Z,101523.09
2022-10-07T05:16:07.700Z,101517.59
2022-10-07T05:17:10.737Z,101517.81
2022-10-07T05:18:13.100Z,101511.28
2022-10-07T05:19:15.614Z,101514.03
2022-10-07T05:20:18.029Z,101515.72
2022-10-07T05:21:20.313Z,101508.31
2022-10-07T05:22:23.837Z,101507.66
2022-10-07T05:23:28.950Z,101506.00
2022-10-07T05:24:34.206Z,101504.09
2022-10-07T05:25:37.497Z,101498.59
2022-10-07T05:26:39.747Z,101507.88
2022-10-07T05:27:44.094Z,101503.44
2022-10-07T05:28:51.323Z,101508.75
2022-10-07T05:29:59.659Z,101502.19
2022-10-07T05:31:07.855Z,101501.34
2022-10-07T05:32:13.230Z,101507.50
2022-10-07T05:33:16.840Z,101503.88
2022-10-07T05:34:20.392Z,101503.88
2022-10-07T05:35:22.876Z,101499.88
2022-10-07T05:36:25.182Z,101498.19
2022-10-07T05:37:29.949Z,101496.09
2022-10-07T05:38:33.926Z,101503.28
2022-10-07T05:39:37.355Z,101501.59
2022-10-07T05:40:45.573Z,101500.31
2022-10-07T05:41:48.294Z,101491.88
2022-10-07T05:42:56.230Z,101504.56
2022-10-07T05:44:00.352Z,101499.72
2022-10-07T05:45:04.408Z,101495.69
2022-10-07T05:46:11.584Z,101492.78
2022-10-07T05:47:18.456Z,101494.44
2022-10-07T05:48:21.833Z,101484.94
2022-10-07T05:49:24.560Z,101490.66
2022-10-07T05:50:26.778Z,101485.81
2022-10-07T05:51:29.028Z,101490.91
2022-10-07T05:52:34.905Z,101489.47
2022-10-07T05:53:41.413Z,101488.19
2022-10-07T05:54:44.123Z,101483.97
2022-10-07T05:55:47.971Z,101488.22
2022-10-07T05:56:58.455Z,101483.13
2022-10-07T05:58:00.799Z,101480.59
2022-10-07T05:59:03.666Z,101486.53
2022-10-07T06:00:07.364Z,101486.13
2022-10-07T06:01:18.242Z,101486.75
2022-10-07T06:02:20.603Z,101480.66
2022-10-07T06:03:26.059Z,101482.13
2022-10-07T06:04:31.374Z,101483.41
2022-10-07T06:05:36.282Z,101486.59
2022-10-07T06:06:38.839Z,101486.16
2022-10-07T06:07:44.639Z,101479.38
2022-10-07T06:08:48.157Z,101482.59
2022-10-07T06:10:09.209Z,101472.00
2022-10-07T06:11:34.255Z,101471.16
2022-10-07T06:12:56.465Z,101480.28
2022-10-07T06:13:59.422Z,101478.56
2022-10-07T06:15:01.898Z,101481.53
2022-10-07T06:16:09.439Z,101477.06
2022-10-07T06:17:11.709Z,101476.44
2022-10-07T06:18:15.350Z,101473.09
2022-10-07T06:19:22.894Z,101473.25
2022-10-07T06:20:27.956Z,101477.91
2022-10-07T06:21:32.097Z,101474.31
2022-10-07T06:22:38.189Z,101474.28
2022-10-07T06:23:40.598Z,101470.91
2022-10-07T06:24:43.551Z,101469.41
2022-10-07T06:25:55.259Z,101470.44
2022-10-07T06:26:59.424Z,101472.34
2022-10-07T06:28:05.875Z,101468.91
2022-10-07T06:29:09.051Z,101461.72
2022-10-07T06:30:14.142Z,101460.22
2022-10-07T06:31:22.497Z,101461.25
2022-10-07T06:32:27.492Z,101461.44
2022-10-07T06:33:29.674Z,101466.31
2022-10-07T06:34:32.143Z,101464.56
2022-10-07T06:35:34.380Z,101465.63
2022-10-07T06:36:36.571Z,101464.72
2022-10-07T06:37:39.441Z,101467.66
2022-10-07T06:38:50.632Z,101461.28
2022-10-07T06:39:59.505Z,101467.16
2022-10-07T06:41:07.769Z,101469.06
2022-10-07T06:42:10.713Z,101469.84
2022-10-07T06:43:35.114Z,101468.31
2022-10-07T06:44:40.814Z,101472.50
2022-10-07T06:45:45.933Z,101467.75
2022-10-07T06:46:51.687Z,101465.56
2022-10-07T06:47:57.417Z,101470.38
2022-10-07T06:48:59.600Z,101466.47
2022-10-07T06:50:02.149Z,101467.66
2022-10-07T06:51:04.863Z,101465.22
2022-10-07T06:52:08.611Z,101466.38
2022-10-07T06:53:11.712Z,101465.88
2022-10-07T06:54:17.164Z,101459.56
2022-10-07T06:55:19.869Z,101466.47
2022-10-07T06:56:22.705Z,101468.47
2022-10-07T06:57:44.703Z,101462.22
2022-10-07T06:58:49.968Z,101459.03
2022-10-07T06:59:58.048Z,101467.16
2022-10-07T07:01:04.418Z,101468.88
2022-10-07T07:02:07.220Z,101465.06
2022-10-07T07:03:13.564Z,101466.81
2022-10-07T07:04:15.868Z,101466.00
2022-10-07T07:05:18.140Z,101467.47
2022-10-07T07:06:22.138Z,101463.88
2022-10-07T07:07:25.033Z,101456.41
2022-10-07T07:08:29.311Z,101452.00
2022-10-07T07:09:32.059Z,101451.53
2022-10-07T07:10:42.977Z,101451.28
2022-10-07T07:11:50.869Z,101449.94
2022-10-07T07:12:58.645Z,101453.53
2022-10-07T07:14:01.555Z,101453.84
2022-10-07T07:15:07.329Z,101451.03
2022-10-07T07:16:09.586Z,101452.91
2022-10-07T07:17:12.371Z,101455.41
2022-10-07T07:18:14.766Z,101459.00
2022-10-07T07:19:17.139Z,101458.34
2022-10-07T07:20:19.477Z,101455.50
2022-10-07T07:21:23.021Z,101448.81
2022-10-07T07:22:25.514Z,101447.88
2022-10-07T07:23:28.470Z,101436.44
2022-10-07T07:24:31.189Z,101439.69
2022-10-07T07:25:38.786Z,101442.38
2022-10-07T07:26:42.025Z,101440.38
2022-10-07T07:27:50.313Z,101434.44
2022-10-07T07:29:09.285Z,101431.31
2022-10-07T07:30:22.104Z,101441.78
2022-10-07T07:31:26.921Z,101435.00
2022-10-07T07:32:30.283Z,101432.91
2022-10-07T07:33:33.046Z,101441.09
2022-10-07T07:34:38.352Z,101429.00
2022-10-07T07:35:44.964Z,101436.94
2022-10-07T07:36:51.209Z,101431.25
2022-10-07T07:37:54.837Z,101435.25
2022-10-07T07:39:09.836Z,101438.44
2022-10-07T07:40:12.342Z,101427.09
2022-10-07T07:41:22.725Z,101438.06
2022-10-07T07:42:25.046Z,101428.69
2022-10-07T07:43:27.371Z,101438.50
2022-10-07T07:44:34.073Z,101435.81
2022-10-07T07:45:38.035Z,101433.69
2022-10-07T07:46:44.165Z,101425.94
2022-10-07T07:47:49.606Z,101423.47
2022-10-07T07:48:53.614Z,101432.72
2022-10-07T07:49:56.116Z,101425.22
2022-10-07T07:51:08.999Z,101427.50
2022-10-07T07:52:11.224Z,101421.69
2022-10-07T07:53:18.190Z,101427.84
2022-10-07T07:54:20.651Z,101427.59
2022-10-07T07:55:27.658Z,101420.34
2022-10-07T07:56:32.221Z,101419.53
2022-10-07T07:57:36.603Z,101426.22
2022-10-07T07:58:42.247Z,101417.03
2022-10-07T07:59:44.938Z,101415.06
2022-10-07T08:01:06.721Z,101420.63
2022-10-07T08:02:12.402Z,101413.38
2022-10-07T08:03:17.213Z,101419.78
2022-10-07T08:04:19.497Z,101410.81
2022-10-07T08:05:24.111Z,101407.44
2022-10-07T08:06:30.331Z,101407.72
2022-10-07T08:07:35.558Z,101407.66
2022-10-07T08:08:42.280Z,101405.09
2022-10-07T08:09:45.723Z,101397.78
2022-10-07T08:10:51.767Z,101399.72
2022-10-07T08:11:54.387Z,101399.69
2022-10-07T08:12:56.921Z,101404.38
2022-10-07T08:13:59.906Z,101401.22
2022-10-07T08:15:03.272Z,101393.88
2022-10-07T08:16:06.487Z,101401.38
2022-10-07T08:17:09.102Z,101389.03
2022-10-07T08:18:11.455Z,101397.34
2022-10-07T08:19:13.715Z,101397.00
2022-10-07T08:20:16.795Z,101396.66
2022-10-07T08:21:29.611Z,101394.34
2022-10-07T08:22:33.817Z,101394.59
2022-10-07T08:23:36.762Z,101392.28
2022-10-07T08:24:38.992Z,101392.75
2022-10-07T08:25:41.274Z,101396.13
2022-10-07T08:26:43.598Z,101393.25
2022-10-07T08:27:49.186Z,101390.72
2022-10-07T08:28:51.743Z,101399.63
2022-10-07T08:29:54.336Z,101388.13
2022-10-07T08:31:08.515Z,101383.59
2022-10-07T08:32:10.868Z,101383.84
2022-10-07T08:33:13.112Z,101384.09
2022-10-07T08:34:15.609Z,101379.25
2022-10-07T08:35:17.825Z,101377.53
2022-10-07T08:36:27.098Z,101375.50
2022-10-07T08:37:30.202Z,101375.75
2022-10-07T08:38:34.877Z,101375.97
2022-10-07T08:39:37.038Z,101372.59
2022-10-07T08:40:47.601Z,101374.22
2022-10-07T08:42:13.374Z,101374.13
2022-10-07T08:43:17.395Z,101379.66
2022-10-07T08:44:33.155Z,101373.72
2022-10-07T08:45:35.566Z,101364.38
2022-10-07T08:46:41.629Z,101366.31
2022-10-07T08:47:46.111Z,101362.25
2022-10-07T08:48:58.367Z,101362.72
2022-10-07T08:50:19.490Z,101357.28
2022-10-07T08:51:30.038Z,101359.72
2022-10-07T08:52:39.259Z,101363.50
2022-10-07T08:53:47.713Z,101358.63
2022-10-07T08:54:50.215Z,101359.94
2022-10-07T08:55:56.575Z,101358.41
2022-10-07T08:57:07.404Z,101355.50
2022-10-07T08:58:25.002Z,101356.47
2022-10-07T08:59:33.229Z,101350.44
2022-10-07T09:00:50.334Z,101352.03
2022-10-07T09:02:17.525Z,101344.38
2022-10-07T09:04:08.039Z,101350.41
2022-10-07T09:05:24.381Z,101348.03
2022-10-07T09:06:55.480Z,101344.28
2022-10-07T09:08:01.896Z,101346.16
2022-10-07T09:09:15.155Z,101340.47
2022-10-07T09:10:32.394Z,101337.56
2022-10-07T09:11:42.540Z,101336.94
2022-10-07T09:12:51.869Z,101335.69
2022-10-07T09:14:12.626Z,101334.75
2022-10-07T09:15:20.479Z,101332.97
2022-10-07T09:16:32.498Z,101334.84
2022-10-07T09:17:46.306Z,101326.63
2022-10-07T09:18:54.197Z,101327.34
2022-10-07T09:20:06.281Z,101328.91
2022-10-07T09:21:25.665Z,101328.47
2022-10-07T09:22:34.386Z,101319.13
2022-10-07T09:23:37.016Z,101326.59
2022-10-07T09:24:39.499Z,101322.84
2022-10-07T09:25:42.365Z,101325.00
2022-10-07T09:26:44.708Z,101320.41
2022-10-07T09:27:48.926Z,101319.19
2022-10-07T09:28:51.194Z,101320.22
2022-10-07T09:29:53.396Z,101325.22
2022-10-07T09:30:58.368Z,101326.25
2022-10-07T09:32:00.628Z,101317.16
2022-10-07T09:33:05.599Z,101321.84
2022-10-07T09:34:19.805Z,101312.75
2022-10-07T09:35:27.303Z,101313.78
2022-10-07T09:36:29.508Z,101307.19
2022-10-07T09:37:31.813Z,101308.22
2022-10-07T09:38:43.072Z,101307.25
2022-10-07T09:39:47.313Z,101305.47
2022-10-07T09:41:08.754Z,101304.81
2022-10-07T09:42:21.938Z,101297.41
2022-10-07T09:43:24.815Z,101301.06
2022-10-07T09:44:29.427Z,101307.72
2022-10-07T09:45:32.926Z,101303.72
2022-10-07T09:46:46.679Z,101298.94
2022-10-07T09:47:54.166Z,101305.59
2022-10-07T09:48:56.526Z,101300.47
2022-10-07T09:49:59.977Z,101295.03
2022-10-07T09:51:16.593Z,101295.56
2022-10-07T09:52:23.422Z,101297.72
2022-10-07T09:53:32.093Z,101291.13
2022-10-07T09:54:36.640Z,101290.47
2022-10-07T09:55:41.045Z,101289.00
2022-10-07T09:56:45.883Z,101289.72
2022-10-07T09:58:00.895Z,101284.22
2022-10-07T09:59:25.995Z,101279.63
2022-10-07T10:00:31.225Z,101282.13
2022-10-07T10:01:33.490Z,101282.31
2022-10-07T10:02:36.051Z,101274.00
2022-10-07T10:03:38.668Z,101282.13
2022-10-07T10:04:48.012Z,101282.66
2022-10-07T10:06:01.161Z,101278.34
2022-10-07T10:07:20.438Z,101273.53
2022-10-07T10:08:34.705Z,101276.06
2022-10-07T10:09:39.570Z,101267.28
2022-10-07T10:10:51.821Z,101263.31
2022-10-07T10:12:02.560Z,101266.13
2022-10-07T10:13:09.997Z,101264.13
2022-10-07T10:14:29.278Z,101254.50
2022-10-07T10:15:42.992Z,101257.34
2022-10-07T10:16:46.975Z,101253.66
2022-10-07T10:17:50.204Z,101252.50
2022-10-07T10:19:26.375Z,101242.91
2022-10-07T10:20:28.756Z,101249.38
2022-10-07T10:21:39.421Z,101244.91
2022-10-07T10:22:41.662Z,101245.22
2022-10-07T10:23:53.111Z,101239.09
2022-10-07T10:25:18.128Z,101243.38
2022-10-07T10:26:37.757Z,101235.25
2022-10-07T10:27:44.478Z,101239.22
2022-10-07T10:28:52.479Z,101228.28
2022-10-07T10:30:21.431Z,101226.63
2022-10-07T10:31:54.621Z,101232.06
2022-10-07T10:33:25.181Z,101233.22
2022-10-07T10:34:38.575Z,101227.25
2022-10-07T10:35:53.107Z,101217.50
2022-10-07T10:37:05.189Z,101221.47
2022-10-07T10:38:30.478Z,101215.31
2022-10-07T10:39:35.440Z,101207.19
2022-10-07T10:40:41.929Z,101215.66
2022-10-07T10:41:53.889Z,101210.00
2022-10-07T10:43:29.308Z,101211.16
2022-10-07T10:44:47.121Z,101209.50
2022-10-07T10:46:01.925Z,101205.03
2022-10-07T10:47:14.916Z,101198.56
2022-10-07T10:48:44.348Z,101202.53
2022-10-07T10:50:06.168Z,101199.22
2022-10-07T10:51:28.177Z,101199.84
2022-10-07T10:52:34.866Z,101195.69
2022-10-07T10:53:51.814Z,101190.38
2022-10-07T10:55:24.728Z,101193.03
2022-10-07T10:56:51.235Z,101186.09
2022-10-07T10:58:21.553Z,101179.94
2022-10-07T10:59:38.904Z,101181.41
2022-10-07T11:01:09.755Z,101182.88
2022-10-07T11:02:35.160Z,101173.09
2022-10-07T11:04:02.149Z,101182.69
2022-10-07T11:05:18.845Z,101180.84
2022-10-07T11:06:22.585Z,101175.50
2022-10-07T11:07:37.643Z,101176.19
2022-10-07T11:08:40.238Z,101171.69
2022-10-07T11:09:57.342Z,101172.34
2022-10-07T11:11:07.340Z,101169.88
2022-10-07T11:12:41.097Z,101157.25
2022-10-07T11:13:52.821Z,101164.38
2022-10-07T11:15:02.111Z,101164.69
2022-10-07T11:16:21.649Z,101161.03
2022-10-07T11:17:30.821Z,101156.88
2022-10-07T11:18:45.831Z,101157.22
2022-10-07T11:20:49.553Z,101141.81
2022-10-07T11:21:54.834Z,101144.44
2022-10-07T11:23:35.235Z,101141.94
2022-10-07T11:24:57.140Z,101143.41
2022-10-07T11:26:32.273Z,101138.94
2022-10-07T11:27:37.125Z,101137.28
2022-10-07T11:28:41.916Z,101142.41
2022-10-07T11:29:58.567Z,101127.81
2022-10-07T11:31:52.535Z,101130.47
2022-10-07T11:33:11.429Z,101125.13
2022-10-07T11:34:19.736Z,101119.00
2022-10-07T11:35:32.111Z,101118.50
2022-10-07T11:37:00.041Z,101115.50
2022-10-07T11:38:14.498Z,101120.94
2022-10-07T11:39:16.909Z,101116.81
2022-10-07T11:40:20.153Z,101121.09
2022-10-07T11:41:29.985Z,101120.22
2022-10-07T11:42:40.457Z,101116.09
2022-10-07T11:43:56.515Z,101108.25
2022-10-07T11:45:02.703Z,101104.94
2022-10-07T11:46:18.782Z,101106.09
2022-10-07T11:47:27.971Z,101105.91
2022-10-07T11:48:51.991Z,101106.25
2022-10-07T11:50:02.494Z,101096.94
2022-10-07T11:51:07.315Z,101102.41
2022-10-07T11:52:19.670Z,101103.56
2022-10-07T11:53:28.672Z,101093.78
2022-10-07T11:54:41.920Z,101099.22
2022-10-07T11:55:55.058Z,101097.53
2022-10-07T11:57:00.655Z,101085.81
2022-10-07T11:58:04.360Z,101085.28
2022-10-07T11:59:07.654Z,101084.75
2022-10-07T12:00:30.424Z,101082.59
2022-10-07T12:01:35.494Z,101074.47
2022-10-07T12:02:39.403Z,101073.97
2022-10-07T12:03:41.761Z,101075.94
2022-10-07T12:04:43.996Z,101070.97
2022-10-07T12:05:49.113Z,101069.31
2022-10-07T12:07:28.822Z,101067.97
2022-10-07T12:08:40.654Z,101069.44
2022-10-07T12:10:18.175Z,101066.09
2022-10-07T12:11:23.068Z,101063.94
2022-10-07T12:12:25.337Z,101063.09
2022-10-07T12:13:39.133Z,101052.50
2022-10-07T12:14:43.604Z,101059.59
2022-10-07T12:15:51.060Z,101050.66
2022-10-07T12:16:55.922Z,101052.94
2022-10-07T12:18:26.284Z,101055.22
2022-10-07T12:19:28.878Z,101046.63
2022-10-07T12:20:44.974Z,101042.97
2022-10-07T12:22:05.694Z,101039.97
2022-10-07T12:23:17.458Z,101039.47
2022-10-07T12:24:20.982Z,101033.28
2022-10-07T12:25:32.504Z,101038.09
2022-10-07T12:26:35.180Z,101033.09
2022-10-07T12:27:37.626Z,101039.88
2022-10-07T12:28:40.913Z,101034.88
2022-10-07T12:30:00.689Z,101038.00
2022-10-07T12:31:06.356Z,101035.84
2022-10-07T12:32:52.168Z,101037.81
2022-10-07T12:34:09.246Z,101033.66
2022-10-07T12:35:29.797Z,101027.88
2022-10-07T12:36:32.540Z,101033.47
2022-10-07T12:37:50.228Z,101035.75
2022-10-07T12:38:59.173Z,101026.31
2022-10-07T12:40:10.583Z,101027.47
2022-10-07T12:41:25.934Z,101021.34
2022-10-07T12:42:29.862Z,101020.81
2022-10-07T12:43:38.080Z,101012.72
2022-10-07T12:44:48.918Z,101014.16
2022-10-07T12:45:52.373Z,101020.94
2022-10-07T12:47:12.729Z,101014.78
2022-10-07T12:48:21.827Z,101010.63
2022-10-07T12:49:36.837Z,101009.28
2022-10-07T12:50:40.516Z,101011.59
2022-10-07T12:51:44.683Z,101007.13
2022-10-07T12:52:57.090Z,101002.66
2022-10-07T12:54:00.375Z,101000.47
2022-10-07T12:55:09.628Z,101004.75
2022-10-07T12:56:21.163Z,101008.69
2022-10-07T12:57:31.095Z,100997.78
2022-10-07T12:59:10.304Z,100993.63
2022-10-07T13:00:17.002Z,100993.09
2022-10-07T13:01:49.543Z,100990.28
2022-10-07T13:03:19.281Z,100988.94
2022-10-07T13:04:39.203Z,100992.06